Time;durP1;ratioP1;P1;durP2;ratioP2;P2;SDS_P1;SDS_P2;PMS_P1;PMS_P2;Temp;Humidity;BMP_temperature;BMP_pressure;BME280_temperature;BME280_humidity;BME280_pressure;Samples;Min_cycle;Max_cycle;Signal;HPM_P1;HPM_P2
2021/06/29 00:01:55;;;;;;;49.58;38.97;;;19.10;97.70;;;;;;5032182;28;20105;-67
2021/06/29 00:04:20;;;;;;;49.17;38.45;;;19.10;97.70;;;;;;5033173;28;20044;-67
2021/06/29 00:06:46;;;;;;;46.60;38.58;;;19.10;97.70;;;;;;5033220;28;20059;-67
2021/06/29 00:09:12;;;;;;;46.78;37.33;;;19.20;97.80;;;;;;5033375;28;20472;-67
2021/06/29 00:11:38;;;;;;;50.28;41.45;;;19.20;97.80;;;;;;5033260;28;20021;-67
2021/06/29 00:14:04;;;;;;;51.17;40.92;;;19.20;97.90;;;;;;5032972;28;20045;-67
2021/06/29 00:16:29;;;;;;;52.72;42.67;;;19.20;97.90;;;;;;5033240;28;20029;-67
2021/06/29 00:18:55;;;;;;;56.70;42.10;;;19.20;97.90;;;;;;5032977;28;20033;-67
2021/06/29 00:21:21;;;;;;;52.15;41.80;;;19.20;98.00;;;;;;5033227;28;20030;-67
2021/06/29 00:23:46;;;;;;;59.75;46.53;;;19.20;98.00;;;;;;5033388;28;20382;-67
2021/06/29 00:26:12;;;;;;;57.25;43.53;;;19.30;98.10;;;;;;5033033;28;20029;-67
2021/06/29 00:28:38;;;;;;;59.13;46.92;;;19.30;98.10;;;;;;5033083;28;20036;-67
2021/06/29 00:31:03;;;;;;;60.25;45.58;;;19.20;98.10;;;;;;5033059;28;20108;-67
2021/06/29 00:33:29;;;;;;;60.28;46.97;;;19.30;98.20;;;;;;5032784;28;20470;-67
2021/06/29 00:35:55;;;;;;;64.50;51.13;;;19.20;98.20;;;;;;5031765;28;20029;-67
2021/06/29 00:38:20;;;;;;;57.28;44.70;;;19.20;98.20;;;;;;5033004;28;20033;-67
2021/06/29 00:40:46;;;;;;;60.13;45.53;;;19.20;98.20;;;;;;5033160;28;20380;-67
2021/06/29 00:43:12;;;;;;;61.40;45.35;;;19.30;98.30;;;;;;5032983;28;20071;-67
2021/06/29 00:45:37;;;;;;;64.30;46.88;;;19.20;98.30;;;;;;5031814;28;20470;-67
2021/06/29 00:48:03;;;;;;;64.80;46.90;;;19.20;98.30;;;;;;5032533;28;20612;-67
2021/06/29 00:50:29;;;;;;;75.82;53.42;;;19.20;98.40;;;;;;5032744;28;20025;-67
2021/06/29 00:52:55;;;;;;;72.75;52.25;;;19.30;98.50;;;;;;5031610;28;20056;-67
2021/06/29 00:55:20;;;;;;;65.57;50.28;;;19.20;98.50;;;;;;5031636;28;20034;-67
2021/06/29 00:57:50;;;;;;;74.80;53.35;;;19.30;98.50;;;;;;5032799;28;20032;-67
2021/06/29 01:00:16;;;;;;;78.10;56.40;;;19.20;98.50;;;;;;5032849;28;20026;-67
2021/06/29 01:02:42;;;;;;;73.30;51.75;;;19.20;98.50;;;;;;5032346;28;20028;-67
2021/06/29 01:05:08;;;;;;;73.45;51.95;;;19.20;98.60;;;;;;5032920;28;20059;-67
2021/06/29 01:07:34;;;;;;;69.57;50.47;;;19.20;98.70;;;;;;5032788;28;20453;-67
2021/06/29 01:10:06;;;;;;;69.35;48.65;;;19.20;98.60;;;;;;5032818;28;20049;-67
2021/06/29 01:12:32;;;;;;;69.45;50.95;;;19.30;98.70;;;;;;5036193;28;20096;-67
2021/06/29 01:14:58;;;;;;;84.68;59.28;;;19.20;98.60;;;;;;5035116;28;20060;-67
2021/06/29 01:17:25;;;;;;;74.47;53.97;;;19.30;98.70;;;;;;5036072;28;20029;-67
2021/06/29 01:19:51;;;;;;;77.40;55.90;;;19.30;98.70;;;;;;5036032;28;20018;-67
2021/06/29 01:22:18;;;;;;;81.95;59.28;;;19.30;98.70;;;;;;5034969;28;20109;-67
2021/06/29 01:24:48;;;;;;;80.82;55.28;;;19.30;98.70;;;;;;5036160;28;20025;-67
2021/06/29 01:32:05;;;;;;;79.90;55.40;;;19.30;98.80;;;;;;5036031;28;20109;-67
2021/06/29 01:34:31;;;;;;;75.53;55.13;;;19.20;98.80;;;;;;5035974;28;20057;-67
2021/06/29 01:36:57;;;;;;;77.90;53.92;;;19.20;98.80;;;;;;5035920;28;20025;-66
2021/06/29 01:39:22;;;;;;;92.68;64.60;;;19.30;98.80;;;;;;5035820;28;20380;-66
2021/06/29 01:41:48;;;;;;;92.55;62.20;;;19.20;98.80;;;;;;5035801;28;20041;-66
2021/06/29 01:44:22;;;;;;;83.25;58.03;;;19.20;98.70;;;;;;5035825;28;20024;-66
2021/06/29 01:46:50;;;;;;;77.50;53.13;;;19.20;98.80;;;;;;5035635;28;20380;-66
2021/06/29 01:49:15;;;;;;;84.00;56.08;;;19.20;98.80;;;;;;5035581;28;20025;-66
2021/06/29 01:51:41;;;;;;;84.35;58.85;;;19.30;98.80;;;;;;5034455;28;20021;-66
2021/06/29 01:54:07;;;;;;;86.65;57.08;;;19.20;98.80;;;;;;5034583;28;20018;-66
2021/06/29 01:56:36;;;;;;;90.20;59.58;;;19.20;98.90;;;;;;5035586;28;20030;-66
2021/06/29 01:59:09;;;;;;;92.22;58.88;;;19.20;98.90;;;;;;5035364;28;20058;-67
2021/06/29 02:01:37;;;;;;;85.55;57.28;;;19.20;98.90;;;;;;5034304;28;20018;-67
2021/06/29 02:04:03;;;;;;;84.70;56.08;;;19.20;99.00;;;;;;5035525;28;20025;-67
2021/06/29 02:06:28;;;;;;;75.57;51.25;;;19.20;99.00;;;;;;5035328;28;20028;-67
2021/06/29 02:08:54;;;;;;;78.22;52.40;;;19.10;98.90;;;;;;5035422;28;20037;-67
2021/06/29 02:11:19;;;;;;;80.82;56.00;;;19.10;98.90;;;;;;5034052;28;20096;-67
2021/06/29 02:13:45;;;;;;;77.88;53.30;;;19.10;98.90;;;;;;5034731;28;20410;-67
2021/06/29 02:16:11;;;;;;;86.78;54.72;;;19.10;99.00;;;;;;5035215;28;20036;-67
2021/06/29 02:18:36;;;;;;;78.18;55.10;;;19.10;99.00;;;;;;5035102;28;20042;-67
2021/06/29 02:21:03;;;;;;;90.13;57.72;;;19.10;99.00;;;;;;5034982;28;20022;-67
2021/06/29 02:23:28;;;;;;;87.47;55.08;;;19.10;99.00;;;;;;5035078;28;20471;-67
2021/06/29 02:25:54;;;;;;;93.28;61.42;;;19.10;99.10;;;;;;5035091;28;20076;-67
2021/06/29 02:28:20;;;;;;;83.88;53.67;;;19.00;99.00;;;;;;5034834;28;20034;-67
2021/06/29 02:30:45;;;;;;;95.03;57.63;;;19.00;99.10;;;;;;5035036;28;20052;-67
2021/06/29 02:33:11;;;;;;;79.03;52.10;;;19.00;99.00;;;;;;5035107;28;20472;-67
2021/06/29 02:35:37;;;;;;;77.40;53.00;;;19.00;99.10;;;;;;5034893;28;20489;-67
2021/06/29 02:38:04;;;;;;;63.58;44.45;;;19.00;99.20;;;;;;5034663;28;20053;-67
2021/06/29 02:40:30;;;;;;;68.07;47.25;;;19.00;99.20;;;;;;5034773;28;20030;-67
2021/06/29 02:42:55;;;;;;;77.15;51.70;;;19.00;99.10;;;;;;5033263;28;20024;-67
2021/06/29 02:45:22;;;;;;;80.28;54.33;;;18.90;99.10;;;;;;5034437;28;20021;-67
2021/06/29 02:47:49;;;;;;;91.32;58.95;;;18.90;99.10;;;;;;5033323;28;20545;-67
2021/06/29 02:50:16;;;;;;;91.97;61.00;;;18.90;99.20;;;;;;5033245;28;20040;-67
2021/06/29 02:52:42;;;;;;;83.47;54.90;;;19.00;99.30;;;;;;5033171;28;20072;-67
2021/06/29 02:55:10;;;;;;;89.00;56.22;;;19.00;99.30;;;;;;5034482;28;20022;-67
2021/06/29 02:57:36;;;;;;;85.60;55.72;;;19.00;99.30;;;;;;5034168;28;20381;-66
2021/06/29 03:00:07;;;;;;;77.70;52.75;;;19.00;99.30;;;;;;5034566;28;20029;-66
2021/06/29 03:02:33;;;;;;;87.47;56.28;;;19.10;99.30;;;;;;5034517;28;20464;-67
2021/06/29 03:04:58;;;;;;;83.25;54.33;;;19.00;99.30;;;;;;5034260;28;20036;-66
2021/06/29 03:07:24;;;;;;;86.75;55.80;;;19.00;99.30;;;;;;5034384;28;20147;-67
2021/06/29 03:09:49;;;;;;;89.97;58.78;;;19.00;99.30;;;;;;5034178;28;20060;-67
2021/06/29 03:12:15;;;;;;;87.18;53.70;;;19.00;99.30;;;;;;5032718;28;20033;-67
2021/06/29 03:14:41;;;;;;;86.55;53.83;;;19.00;99.30;;;;;;5033652;28;20126;-66
2021/06/29 03:17:07;;;;;;;87.68;56.53;;;19.00;99.30;;;;;;5034193;28;20518;-67
2021/06/29 03:19:52;;;;;;;89.10;55.00;;;19.00;99.40;;;;;;5037073;28;20060;-67
2021/06/29 03:22:18;;;;;;;94.68;55.20;;;18.90;99.30;;;;;;5033957;28;20471;-66
2021/06/29 03:24:43;;;;;;;99.22;57.78;;;19.00;99.40;;;;;;5033817;28;20036;-67
2021/06/29 03:27:09;;;;;;;94.63;58.17;;;18.90;99.40;;;;;;5032245;28;20032;-67
2021/06/29 03:29:36;;;;;;;97.18;57.90;;;18.90;99.50;;;;;;5033987;28;20032;-67
2021/06/29 03:32:01;;;;;;;95.85;58.47;;;19.00;99.50;;;;;;5033955;28;20033;-67
2021/06/29 03:34:27;;;;;;;96.60;55.70;;;19.00;99.50;;;;;;5033314;28;20033;-67
2021/06/29 03:36:53;;;;;;;95.32;58.25;;;19.00;99.50;;;;;;5033639;28;20031;-66
2021/06/29 03:39:18;;;;;;;107.53;61.72;;;19.00;99.50;;;;;;5033596;28;20053;-67
2021/06/29 03:41:45;;;;;;;100.88;57.95;;;18.90;99.50;;;;;;5033543;28;20060;-67
2021/06/29 03:44:11;;;;;;;95.10;56.40;;;19.00;99.50;;;;;;5026218;28;20049;-67
2021/06/29 03:46:37;;;;;;;102.82;61.67;;;19.00;99.60;;;;;;5023735;28;20030;-67
2021/06/29 03:49:03;;;;;;;113.22;64.30;;;19.00;99.60;;;;;;5033660;28;20029;-67
2021/06/29 03:51:28;;;;;;;105.20;62.53;;;19.00;99.60;;;;;;5033425;28;20506;-67
2021/06/29 03:53:54;;;;;;;108.47;62.05;;;19.00;99.60;;;;;;5033490;28;20403;-67
2021/06/29 03:56:29;;;;;;;96.03;59.47;;;19.10;99.60;;;;;;5033248;28;20021;-67
2021/06/29 03:59:06;;;;;;;100.45;60.33;;;19.10;99.60;;;;;;5033368;28;20030;-67
2021/06/29 04:01:33;;;;;;;86.20;52.42;;;19.10;99.60;;;;;;5033385;28;20044;-67
2021/06/29 04:03:59;;;;;;;81.65;51.03;;;19.10;99.60;;;;;;5033330;28;20075;-67
2021/06/29 04:06:32;;;;;;;90.95;55.85;;;19.10;99.60;;;;;;5033296;28;20144;-67
2021/06/29 04:08:59;;;;;;;95.85;57.78;;;19.10;99.60;;;;;;5033264;28;20483;-67
2021/06/29 04:11:26;;;;;;;122.38;64.53;;;19.10;99.60;;;;;;5033210;28;20446;-67
2021/06/29 04:13:52;;;;;;;111.07;62.92;;;19.10;99.60;;;;;;5033112;28;20491;-67
2021/06/29 04:16:19;;;;;;;108.25;61.28;;;19.10;99.60;;;;;;5033159;28;20040;-67
2021/06/29 04:18:44;;;;;;;99.35;60.40;;;19.20;99.60;;;;;;5033179;28;20029;-67
2021/06/29 04:21:11;;;;;;;91.97;57.20;;;19.20;99.70;;;;;;5033601;28;20101;-67
2021/06/29 04:23:38;;;;;;;98.40;58.65;;;19.20;99.60;;;;;;5032853;28;20029;-67
2021/06/29 04:26:03;;;;;;;92.20;57.15;;;19.20;99.60;;;;;;5033058;28;20018;-67
2021/06/29 04:28:29;;;;;;;106.82;62.17;;;19.30;99.60;;;;;;5033237;28;20506;-67
2021/06/29 04:30:55;;;;;;;113.78;63.25;;;19.30;99.50;;;;;;5033142;28;20025;-67
2021/06/29 04:33:21;;;;;;;99.28;63.33;;;19.30;99.50;;;;;;5033237;28;20383;-67
2021/06/29 04:35:47;;;;;;;100.55;59.65;;;19.30;99.50;;;;;;5032883;28;20104;-67
2021/06/29 04:38:12;;;;;;;110.03;63.33;;;19.40;99.60;;;;;;5032659;28;20105;-67
2021/06/29 04:40:38;;;;;;;83.88;53.75;;;19.40;99.50;;;;;;5033251;28;20033;-67
2021/06/29 04:43:03;;;;;;;87.93;54.10;;;19.40;99.50;;;;;;5032436;28;20022;-67
2021/06/29 04:45:29;;;;;;;75.05;46.70;;;19.40;99.50;;;;;;5033720;28;20369;-67
2021/06/29 04:47:56;;;;;;;82.80;51.70;;;19.40;99.50;;;;;;5036644;28;20097;-67
2021/06/29 04:50:23;;;;;;;79.32;52.05;;;19.50;99.40;;;;;;5036825;28;20026;-67
2021/06/29 04:52:48;;;;;;;85.85;55.03;;;19.50;99.40;;;;;;5036633;28;20035;-67
2021/06/29 04:55:15;;;;;;;85.35;54.60;;;19.50;99.40;;;;;;5036763;28;20029;-67
2021/06/29 04:57:41;;;;;;;100.53;59.17;;;19.50;99.40;;;;;;5036793;28;20029;-67
2021/06/29 05:00:09;;;;;;;95.43;58.72;;;19.50;99.30;;;;;;5036742;28;20033;-67
2021/06/29 05:02:38;;;;;;;92.28;55.92;;;19.50;99.30;;;;;;5036401;28;20029;-67
2021/06/29 05:05:06;;;;;;;89.20;55.40;;;19.50;99.40;;;;;;5036428;28;20018;-67
2021/06/29 05:07:32;;;;;;;115.72;69.60;;;19.40;99.30;;;;;;5035168;28;20087;-67
2021/06/29 05:09:58;;;;;;;95.88;60.50;;;19.40;99.30;;;;;;5036306;28;20454;-67
2021/06/29 05:12:24;;;;;;;92.35;58.85;;;19.40;99.30;;;;;;5036206;28;20022;-68
2021/06/29 05:14:49;;;;;;;89.85;58.47;;;19.40;99.30;;;;;;5036290;28;20065;-67
2021/06/29 05:17:15;;;;;;;123.72;72.35;;;19.40;99.40;;;;;;5036265;28;20076;-67
2021/06/29 05:19:41;;;;;;;102.75;62.20;;;19.40;99.30;;;;;;5034948;28;20022;-68
2021/06/29 05:22:07;;;;;;;108.05;63.97;;;19.30;99.30;;;;;;5036428;28;20025;-67
2021/06/29 05:24:33;;;;;;;121.72;66.93;;;19.30;99.40;;;;;;5036879;28;20415;-67
2021/06/29 05:26:58;;;;;;;113.90;68.25;;;19.30;99.40;;;;;;5036169;28;20048;-67
2021/06/29 05:29:24;;;;;;;97.15;62.95;;;19.30;99.40;;;;;;5036073;28;20030;-67
2021/06/29 05:31:50;;;;;;;97.30;60.08;;;19.30;99.50;;;;;;5036024;28;20069;-67
2021/06/29 05:34:16;;;;;;;98.53;61.50;;;19.30;99.50;;;;;;5018114;28;20022;-67
2021/06/29 05:36:42;;;;;;;108.95;66.25;;;19.30;99.50;;;;;;5035783;28;20025;-67
2021/06/29 05:39:09;;;;;;;98.30;60.22;;;19.30;99.50;;;;;;5035696;28;20372;-67
2021/06/29 05:41:34;;;;;;;95.32;58.47;;;19.30;99.50;;;;;;5035619;28;20022;-67
2021/06/29 05:44:01;;;;;;;98.53;61.80;;;19.30;99.50;;;;;;5036116;28;20022;-67
2021/06/29 05:46:26;;;;;;;108.75;63.88;;;19.40;99.50;;;;;;5035894;28;20045;-67
2021/06/29 05:48:52;;;;;;;98.70;61.08;;;19.40;99.50;;;;;;5035548;28;20103;-67
2021/06/29 05:51:18;;;;;;;104.18;60.92;;;19.50;99.50;;;;;;5034411;28;20052;-68
2021/06/29 05:53:44;;;;;;;98.50;59.20;;;19.50;99.50;;;;;;5034512;28;20427;-67
2021/06/29 05:56:10;;;;;;;92.15;59.25;;;19.50;99.50;;;;;;5035216;28;20082;-67
2021/06/29 05:58:37;;;;;;;89.30;58.90;;;19.50;99.40;;;;;;5035972;28;20029;-67
2021/06/29 06:01:04;;;;;;;89.85;57.92;;;19.60;99.40;;;;;;5035496;28;20025;-67
2021/06/29 06:03:29;;;;;;;93.00;57.30;;;19.60;99.40;;;;;;5035437;28;20085;-67
2021/06/29 06:05:55;;;;;;;90.50;57.45;;;19.50;99.30;;;;;;5035226;28;20487;-67
2021/06/29 06:08:20;;;;;;;81.47;53.78;;;19.60;99.40;;;;;;5035553;28;20025;-67
2021/06/29 06:10:46;;;;;;;87.43;56.40;;;19.60;99.30;;;;;;5035457;28;20531;-67
2021/06/29 06:13:11;;;;;;;83.78;54.75;;;19.70;99.30;;;;;;5035071;28;20049;-67
2021/06/29 06:15:37;;;;;;;79.95;52.08;;;19.70;99.30;;;;;;5033995;28;20029;-67
2021/06/29 06:18:06;;;;;;;77.55;53.05;;;19.70;99.10;;;;;;5035343;28;20025;-67
2021/06/29 06:20:34;;;;;;;80.03;53.83;;;19.70;99.00;;;;;;5035018;28;20055;-67
2021/06/29 06:22:59;;;;;;;81.50;52.72;;;19.70;99.00;;;;;;5035311;28;20112;-67
2021/06/29 06:25:25;;;;;;;85.40;55.47;;;19.70;99.00;;;;;;5035094;28;20104;-67
2021/06/29 06:27:50;;;;;;;76.53;51.88;;;19.70;99.00;;;;;;5034991;28;20033;-67
2021/06/29 06:30:18;;;;;;;73.78;51.92;;;19.70;99.00;;;;;;5035012;28;20030;-67
2021/06/29 06:32:44;;;;;;;78.78;52.00;;;19.60;99.00;;;;;;5034895;28;20026;-67
2021/06/29 06:35:10;;;;;;;79.25;52.92;;;19.60;99.00;;;;;;5035200;28;20044;-67
2021/06/29 06:37:35;;;;;;;77.28;48.20;;;19.70;99.00;;;;;;5034800;28;20112;-67
2021/06/29 06:40:01;;;;;;;76.80;49.63;;;19.70;99.00;;;;;;5034312;28;20524;-67
2021/06/29 06:42:26;;;;;;;75.13;49.13;;;19.80;99.00;;;;;;5034880;28;20376;-67
2021/06/29 06:44:52;;;;;;;76.90;51.63;;;19.80;99.00;;;;;;5034643;28;20061;-67
2021/06/29 06:47:18;;;;;;;68.60;47.35;;;19.90;98.90;;;;;;5034707;28;20090;-67
2021/06/29 06:49:43;;;;;;;65.32;45.92;;;19.90;98.80;;;;;;5034437;28;20035;-67
2021/06/29 06:52:09;;;;;;;64.53;44.72;;;19.90;98.80;;;;;;5034512;28;20033;-67
2021/06/29 06:54:34;;;;;;;64.80;45.53;;;19.90;98.80;;;;;;5034860;28;20072;-67
2021/06/29 06:57:00;;;;;;;64.07;44.05;;;19.90;98.80;;;;;;5034503;28;20021;-67
2021/06/29 06:59:25;;;;;;;64.10;43.13;;;19.90;98.90;;;;;;5034498;28;20025;-67
2021/06/29 07:01:51;;;;;;;65.35;44.45;;;20.00;99.20;;;;;;5034285;28;20025;-66
2021/06/29 07:04:17;;;;;;;69.97;44.88;;;20.10;98.90;;;;;;5034242;28;20026;-67
2021/06/29 07:06:43;;;;;;;67.78;47.90;;;20.10;98.80;;;;;;5034099;28;20476;-67
2021/06/29 07:09:08;;;;;;;71.90;47.58;;;20.20;98.70;;;;;;5033418;28;20044;-67
2021/06/29 07:11:34;;;;;;;70.70;45.42;;;20.20;98.50;;;;;;5032940;28;20030;-67
2021/06/29 07:13:59;;;;;;;77.53;49.55;;;20.30;98.60;;;;;;5033971;28;20046;-67
2021/06/29 07:16:26;;;;;;;77.25;50.65;;;20.30;98.50;;;;;;5034150;28;20499;-67
2021/06/29 07:18:51;;;;;;;79.00;50.97;;;20.20;98.50;;;;;;5033963;28;20060;-67
2021/06/29 07:21:17;;;;;;;83.22;53.45;;;20.30;98.50;;;;;;5033937;28;20075;-67
2021/06/29 07:23:43;;;;;;;86.40;55.13;;;20.40;98.50;;;;;;5032783;28;20032;-67
2021/06/29 07:26:08;;;;;;;88.57;55.55;;;20.40;98.50;;;;;;5033707;28;20030;-67
2021/06/29 07:28:34;;;;;;;90.25;56.55;;;20.50;98.50;;;;;;5033795;28;20076;-67
2021/06/29 07:30:59;;;;;;;84.00;56.45;;;20.50;98.50;;;;;;5032586;28;20018;-67
2021/06/29 07:33:26;;;;;;;79.85;54.53;;;20.60;98.30;;;;;;5033828;28;20495;-67
2021/06/29 07:35:51;;;;;;;84.68;55.50;;;20.70;98.20;;;;;;5033616;28;20439;-67
2021/06/29 07:38:17;;;;;;;81.63;54.70;;;20.80;98.00;;;;;;5033217;28;20022;-67
2021/06/29 07:40:42;;;;;;;79.63;53.45;;;20.80;97.90;;;;;;5033595;28;20056;-67
2021/06/29 07:43:08;;;;;;;80.55;53.75;;;20.80;97.90;;;;;;5033748;28;20021;-67
2021/06/29 07:45:34;;;;;;;77.88;51.15;;;20.90;97.70;;;;;;5033659;28;20463;-67
2021/06/29 07:48:03;;;;;;;82.43;54.30;;;20.90;97.50;;;;;;5033596;28;20112;-67
2021/06/29 07:50:30;;;;;;;77.15;52.95;;;20.90;97.40;;;;;;5033303;28;20040;-67
2021/06/29 07:52:57;;;;;;;76.25;53.22;;;21.00;97.40;;;;;;5033724;28;20079;-67
2021/06/29 07:55:25;;;;;;;79.90;54.75;;;21.00;97.30;;;;;;5033703;28;20076;-67
2021/06/29 07:57:50;;;;;;;80.05;55.83;;;21.00;97.10;;;;;;5033379;28;20025;-67
2021/06/29 08:00:16;;;;;;;83.57;57.72;;;21.00;96.80;;;;;;5033583;28;20025;-67
2021/06/29 08:02:42;;;;;;;84.28;58.90;;;20.90;96.80;;;;;;5033280;28;20476;-67
2021/06/29 08:05:08;;;;;;;89.57;58.13;;;21.00;96.80;;;;;;5033155;28;20022;-68
2021/06/29 08:07:33;;;;;;;82.18;54.80;;;21.00;96.80;;;;;;5033148;28;20033;-67
2021/06/29 08:09:59;;;;;;;75.28;51.38;;;21.00;96.80;;;;;;5032009;28;20017;-68
2021/06/29 08:12:25;;;;;;;77.32;52.92;;;21.20;96.70;;;;;;5031865;28;20388;-67
2021/06/29 08:14:51;;;;;;;84.18;57.63;;;21.40;96.60;;;;;;5033189;28;20036;-68
2021/06/29 08:17:44;;;;;;;88.30;59.38;;;21.60;96.10;;;;;;5033163;28;20029;-68
2021/06/29 08:20:11;;;;;;;93.75;62.03;;;21.70;95.70;;;;;;5036923;28;20025;-68
2021/06/29 08:22:36;;;;;;;89.80;59.78;;;21.70;95.20;;;;;;5039718;28;20032;-68
2021/06/29 08:25:04;;;;;;;82.55;53.85;;;21.60;95.10;;;;;;5038721;28;20025;-68
2021/06/29 08:27:30;;;;;;;82.15;54.80;;;21.50;95.30;;;;;;5039634;28;20075;-68
2021/06/29 08:29:57;;;;;;;82.80;53.55;;;21.40;95.20;;;;;;5040124;28;20030;-68
2021/06/29 08:32:23;;;;;;;84.63;55.03;;;21.30;95.20;;;;;;5039851;28;20365;-68
2021/06/29 08:34:49;;;;;;;94.72;59.55;;;21.30;95.30;;;;;;5039691;28;20041;-68
2021/06/29 08:37:14;;;;;;;89.43;57.30;;;21.40;95.30;;;;;;5032299;28;20022;-68
2021/06/29 08:39:40;;;;;;;90.82;59.05;;;21.50;95.20;;;;;;5019834;28;20056;-68
2021/06/29 08:42:06;;;;;;;76.57;53.28;;;21.70;95.10;;;;;;5019775;28;20389;-67
2021/06/29 08:44:31;;;;;;;78.22;52.33;;;22.00;95.00;;;;;;5018833;28;20026;-68
2021/06/29 08:46:57;;;;;;;68.38;46.95;;;22.30;94.60;;;;;;5033983;28;20105;-68
2021/06/29 08:49:22;;;;;;;70.50;49.13;;;22.40;93.90;;;;;;5039503;28;20028;-68
2021/06/29 08:51:51;;;;;;;76.35;53.15;;;22.30;93.70;;;;;;5039448;28;20033;-68
2021/06/29 08:54:17;;;;;;;77.55;52.03;;;22.20;93.60;;;;;;5038240;28;20025;-68
2021/06/29 08:56:43;;;;;;;82.90;53.28;;;22.10;93.60;;;;;;5039787;28;20049;-68
2021/06/29 08:59:08;;;;;;;77.18;51.72;;;22.10;93.80;;;;;;5039429;28;20064;-68
2021/06/29 09:01:34;;;;;;;72.43;49.92;;;22.20;93.60;;;;;;5039710;28;20436;-68
2021/06/29 09:03:59;;;;;;;72.80;51.72;;;22.40;93.40;;;;;;5039367;28;20045;-67
2021/06/29 09:06:39;;;;;;;76.63;50.20;;;22.50;93.00;;;;;;5039373;28;20026;-68
2021/06/29 09:09:27;;;;;;;72.75;49.50;;;22.60;92.60;;;;;;5039262;28;20021;-68
2021/06/29 09:11:55;;;;;;;66.05;45.47;;;22.60;92.60;;;;;;5039126;28;20029;-68
2021/06/29 09:14:30;;;;;;;66.65;48.65;;;22.50;92.40;;;;;;5039030;28;20065;-68
2021/06/29 09:17:18;;;;;;;68.95;47.72;;;22.50;92.50;;;;;;5039297;28;20021;-68
2021/06/29 09:19:44;;;;;;;61.42;44.13;;;22.50;92.30;;;;;;5039319;28;20028;-68
2021/06/29 09:22:31;;;;;;;66.80;47.15;;;22.50;92.30;;;;;;5039238;28;20092;-68
2021/06/29 09:24:57;;;;;;;69.47;45.45;;;22.40;92.20;;;;;;5039195;28;20495;-68
2021/06/29 09:27:45;;;;;;;66.43;45.65;;;22.40;92.30;;;;;;5039239;28;20396;-68
2021/06/29 09:30:26;;;;;;;70.45;47.95;;;22.30;92.20;;;;;;5037905;28;20079;-68
2021/06/29 09:32:53;;;;;;;69.38;46.15;;;22.20;92.40;;;;;;5035065;28;20053;-68
2021/06/29 09:35:18;;;;;;;68.88;48.05;;;22.20;92.60;;;;;;5032705;28;20046;-68
2021/06/29 09:37:47;;;;;;;78.20;50.17;;;22.10;92.70;;;;;;5016139;28;20424;-68
2021/06/29 09:40:15;;;;;;;74.75;49.33;;;22.20;92.80;;;;;;5015949;28;20022;-68
2021/06/29 09:42:41;;;;;;;74.55;47.75;;;22.20;92.80;;;;;;5015911;28;20026;-68
2021/06/29 09:45:36;;;;;;;72.72;46.95;;;22.30;92.70;;;;;;5015926;28;20476;-68
2021/06/29 09:48:08;;;;;;;67.60;43.85;;;22.60;92.30;;;;;;5016065;28;20022;-68
2021/06/29 09:50:39;;;;;;;67.78;42.75;;;22.70;92.00;;;;;;5024491;28;20021;-68
2021/06/29 09:53:16;;;;;;;77.57;47.35;;;22.70;91.70;;;;;;5034433;28;20029;-68
2021/06/29 09:55:50;;;;;;;70.05;44.53;;;22.70;91.60;;;;;;5035608;28;20060;-68
2021/06/29 09:58:17;;;;;;;62.85;41.17;;;22.60;91.50;;;;;;5035645;28;20033;-68
2021/06/29 10:00:50;;;;;;;76.30;48.55;;;22.50;91.80;;;;;;5034271;28;20026;-68
2021/06/29 10:03:27;;;;;;;69.45;45.50;;;22.60;91.70;;;;;;5035476;28;20025;-68
2021/06/29 10:05:55;;;;;;;71.97;46.13;;;22.50;91.90;;;;;;5035489;28;20109;-68
2021/06/29 10:08:32;;;;;;;67.68;45.58;;;22.60;91.90;;;;;;5035040;28;20101;-68
2021/06/29 10:11:08;;;;;;;62.90;41.17;;;22.90;92.20;;;;;;5034093;28;20079;-67
2021/06/29 10:13:36;;;;;;;65.43;43.25;;;23.50;91.80;;;;;;5035282;28;20041;-68
2021/06/29 10:16:03;;;;;;;55.95;38.67;;;23.90;90.90;;;;;;5035233;28;20025;-68
2021/06/29 10:18:32;;;;;;;58.78;37.97;;;24.10;90.40;;;;;;5035156;28;20033;-68
2021/06/29 10:21:01;;;;;;;54.72;35.58;;;24.10;88.00;;;;;;5034993;28;20022;-67
2021/06/29 10:23:27;;;;;;;48.13;34.40;;;23.90;87.80;;;;;;5035329;28;20420;-68
2021/06/29 10:25:53;;;;;;;44.28;31.25;;;23.90;87.90;;;;;;5035177;28;20052;-68
2021/06/29 10:28:19;;;;;;;39.78;29.45;;;24.00;87.10;;;;;;5035105;28;20373;-68
2021/06/29 10:30:45;;;;;;;42.85;29.95;;;24.00;86.30;;;;;;5035107;28;20033;-67
2021/06/29 10:33:12;;;;;;;41.35;30.27;;;24.10;86.30;;;;;;5033702;28;20140;-67
2021/06/29 10:35:40;;;;;;;44.05;30.08;;;24.30;86.10;;;;;;5034511;28;20086;-68
2021/06/29 10:38:05;;;;;;;38.03;27.20;;;24.50;85.30;;;;;;5034879;28;20095;-67
2021/06/29 10:40:32;;;;;;;39.30;27.38;;;24.80;85.20;;;;;;5034964;28;20049;-68
2021/06/29 10:43:00;;;;;;;38.05;28.42;;;25.30;84.10;;;;;;5033613;28;20024;-67
2021/06/29 10:45:37;;;;;;;37.38;26.92;;;25.50;81.70;;;;;;5034744;28;20029;-68
2021/06/29 10:48:19;;;;;;;30.27;22.83;;;25.30;80.00;;;;;;5034501;28;20026;-67
2021/06/29 10:50:45;;;;;;;;;;;25.10;81.40;;;;;;5035112;28;20104;-67
2021/06/29 10:53:42;;;;;;;33.47;24.50;;;24.90;81.30;;;;;;5034697;28;20287;-67
2021/06/29 10:56:18;;;;;;;33.40;25.08;;;25.10;80.00;;;;;;5034586;28;20422;-68
2021/06/29 10:58:49;;;;;;;29.35;22.80;;;25.20;79.60;;;;;;5034285;28;20028;-68
2021/06/29 11:01:26;;;;;;;33.17;25.67;;;25.50;80.70;;;;;;5034413;28;20095;-68
2021/06/29 11:03:54;;;;;;;34.45;25.52;;;26.00;80.00;;;;;;5034129;28;20025;-67
2021/06/29 11:06:47;;;;;;;30.98;24.55;;;26.00;78.10;;;;;;5034182;28;20021;-68
2021/06/29 11:09:16;;;;;;;31.02;23.60;;;25.90;77.20;;;;;;5034377;28;20056;-67
2021/06/29 11:12:01;;;;;;;26.85;20.65;;;25.60;76.90;;;;;;5034395;28;20047;-68
2021/06/29 11:14:30;;;;;;;24.20;20.35;;;25.40;77.40;;;;;;5032635;28;20045;-68
2021/06/29 11:16:59;;;;;;;22.95;18.75;;;25.30;78.50;;;;;;5034122;28;20022;-68
2021/06/29 11:20:00;;;;;;;25.55;21.23;;;25.20;78.80;;;;;;5033928;28;20045;-68
2021/06/29 11:23:05;;;;;;;35.97;27.73;;;25.30;78.50;;;;;;5034013;28;20047;-68
2021/06/29 11:25:42;;;;;;;40.03;29.92;;;25.30;78.60;;;;;;5032295;28;20441;-68
2021/06/29 11:28:28;;;;;;;39.83;30.88;;;25.30;78.90;;;;;;5033918;28;20025;-68
2021/06/29 11:31:04;;;;;;;37.63;28.52;;;25.40;79.00;;;;;;5034105;28;20029;-68
2021/06/29 11:33:41;;;;;;;38.60;28.38;;;25.30;79.60;;;;;;5033875;28;20049;-68
2021/06/29 11:36:32;;;;;;;35.83;27.85;;;25.30;78.60;;;;;;5033672;28;20457;-68
2021/06/29 11:38:57;;;;;;;30.77;24.52;;;25.10;78.20;;;;;;5032895;28;20033;-68
2021/06/29 11:41:29;;;;;;;41.00;31.70;;;25.00;79.00;;;;;;5033703;28;20024;-68
2021/06/29 11:43:57;;;;;;;41.63;31.73;;;24.90;79.60;;;;;;5033760;28;20108;-68
2021/06/29 11:46:52;;;;;;;42.78;32.45;;;24.70;79.80;;;;;;5033654;28;20026;-68
2021/06/29 11:49:31;;;;;;;40.60;31.70;;;24.50;80.20;;;;;;5033778;28;20100;-68
2021/06/29 11:52:15;;;;;;;42.10;31.92;;;24.40;81.30;;;;;;5032280;28;20120;-68
2021/06/29 11:55:04;;;;;;;39.05;29.92;;;24.40;81.50;;;;;;5033176;28;20021;-68
2021/06/29 11:57:42;;;;;;;40.03;31.15;;;24.50;81.50;;;;;;5033301;28;20026;-68
2021/06/29 12:00:07;;;;;;;38.50;28.38;;;24.50;81.70;;;;;;5033691;28;20020;-68
2021/06/29 12:02:34;;;;;;;43.03;32.80;;;24.60;81.90;;;;;;5032078;28;20112;-68
2021/06/29 12:04:59;;;;;;;37.10;27.50;;;24.80;81.40;;;;;;5033329;28;20072;-67
2021/06/29 12:07:31;;;;;;;37.33;29.33;;;24.90;81.20;;;;;;5033203;28;20034;-68
2021/06/29 12:09:56;;;;;;;40.15;31.90;;;25.00;80.40;;;;;;5033776;28;20049;-68
2021/06/29 12:12:25;;;;;;;37.92;30.35;;;24.90;80.10;;;;;;5033262;28;20061;-67
2021/06/29 12:15:15;;;;;;;36.90;28.92;;;24.70;80.30;;;;;;5033186;28;20064;-68
2021/06/29 12:17:48;;;;;;;31.92;27.02;;;24.50;80.70;;;;;;5032198;28;20456;-68
2021/06/29 12:20:14;;;;;;;31.10;25.60;;;24.40;81.40;;;;;;5033045;28;20076;-67
2021/06/29 12:22:42;;;;;;;28.30;23.38;;;24.40;82.50;;;;;;5031911;28;20364;-68
2021/06/29 12:25:11;;;;;;;26.48;22.23;;;24.80;82.50;;;;;;5033521;28;20072;-68
2021/06/29 12:27:48;;;;;;;26.75;22.67;;;25.10;81.60;;;;;;5033237;28;20071;-68
2021/06/29 12:30:21;;;;;;;24.45;20.65;;;25.50;79.50;;;;;;5031853;28;20026;-68
2021/06/29 12:32:47;;;;;;;20.30;17.80;;;25.60;78.70;;;;;;5015918;28;20614;-67
2021/06/29 12:35:13;;;;;;;21.95;19.50;;;25.60;78.50;;;;;;5013753;28;20041;-68
2021/06/29 12:38:07;;;;;;;23.33;19.60;;;25.60;77.50;;;;;;5014690;28;20510;-67